Time;durP1;ratioP1;P1;durP2;ratioP2;P2;SDS_P1;SDS_P2;PMS_P1;PMS_P2;Temp;Humidity;BMP_temperature;BMP_pressure;BME280_temperature;BME280_humidity;BME280_pressure;Samples;Min_cycle;Max_cycle;Signal;HPM_P1;HPM_P2
2022/12/23 00:02:26;;;;;;;22.50;15.00;;;;;;;6.35;90.19;99290.90;103192;1329;37669;-75
2022/12/23 00:05:02;;;;;;;19.40;14.00;;;;;;;6.38;90.18;99291.15;103260;1325;37170;-73
2022/12/23 00:07:38;;;;;;;17.40;13.50;;;;;;;6.38;90.13;99293.73;103298;1325;37238;-74
2022/12/23 00:10:15;;;;;;;17.00;12.30;;;;;;;6.37;90.13;99297.06;103287;1326;37687;-74
2022/12/23 00:15:46;;;;;;;16.00;12.40;;;;;;;6.34;90.23;99293.34;103266;1327;37233;-74
2022/12/23 00:18:22;;;;;;;17.60;12.80;;;;;;;6.35;90.26;99293.99;103286;1329;37247;-73
2022/12/23 00:21:05;;;;;;;18.60;12.80;;;;;;;6.38;90.15;99293.38;103273;1327;38301;-73
2022/12/23 00:23:47;;;;;;;16.80;12.00;;;;;;;6.40;90.31;99300.94;103331;1326;37115;-75
2022/12/23 00:26:25;;;;;;;18.80;13.70;;;;;;;6.41;90.39;99301.93;103139;1324;172751;-75
2022/12/23 00:29:04;;;;;;;19.00;13.10;;;;;;;6.41;90.01;99303.66;103314;1326;37186;-74
2022/12/23 00:31:39;;;;;;;19.30;13.30;;;;;;;6.38;90.27;99310.52;103351;1327;37305;-73
2022/12/23 00:34:16;;;;;;;19.60;13.00;;;;;;;6.39;90.33;99309.27;103265;1327;37889;-74
2022/12/23 00:36:51;;;;;;;18.80;13.10;;;;;;;6.41;90.33;99314.39;103245;1326;37290;-74
2022/12/23 00:45:17;;;;;;;17.60;13.00;;;;;;;6.44;90.38;99310.81;103232;1326;39598;-74
2022/12/23 00:50:45;;;;;;;21.20;14.00;;;;;;;6.52;90.78;99317.11;103000;1331;37590;-73
2022/12/23 00:53:20;;;;;;;21.90;14.80;;;;;;;6.54;90.63;99319.09;103310;1328;36961;-74
2022/12/23 00:55:56;;;;;;;20.60;14.30;;;;;;;6.52;90.47;99320.23;103156;1325;175299;-75
2022/12/23 00:58:31;;;;;;;20.50;13.60;;;;;;;6.52;90.67;99324.57;103305;1327;37232;-74
2022/12/23 01:07:08;;;;;;;20.40;14.60;;;;;;;6.52;90.99;99326.80;103066;1330;38075;-74
2022/12/23 01:09:46;;;;;;;;;;;;;;;6.52;90.59;99327.52;103258;1327;36667;-76
2022/12/23 01:12:29;;;;;;;22.20;14.60;;;;;;;6.44;90.86;99327.95;103255;1326;38738;-74
2022/12/23 01:15:09;;;;;;;22.10;14.30;;;;;;;6.45;90.95;99330.52;103273;1326;37099;-72
2022/12/23 01:17:45;;;;;;;22.60;15.70;;;;;;;6.47;91.14;99332.89;103290;1327;37048;-73
2022/12/23 01:20:19;;;;;;;22.10;15.20;;;;;;;6.53;91.45;99336.83;103241;1328;36487;-75
2022/12/23 01:22:55;;;;;;;24.60;15.60;;;;;;;6.59;91.42;99333.81;103157;1326;187497;-73
2022/12/23 01:25:32;;;;;;;22.10;15.20;;;;;;;6.63;91.32;99340.95;103278;1327;38518;-73
2022/12/23 01:28:06;;;;;;;24.70;17.40;;;;;;;6.66;91.18;99340.48;103289;1326;37139;-75
2022/12/23 01:30:42;;;;;;;23.50;15.60;;;;;;;6.67;91.10;99341.31;103225;1323;37358;-75
2022/12/23 01:33:16;;;;;;;23.40;16.00;;;;;;;6.65;90.97;99340.16;103261;1328;37218;-75
2022/12/23 01:35:59;;;;;;;21.50;15.20;;;;;;;6.64;90.94;99340.38;103242;1326;36173;-75
2022/12/23 01:38:35;;;;;;;23.20;15.40;;;;;;;6.65;90.90;99338.95;103345;1327;36451;-73
2022/12/23 01:42:42;;;;;;;22.30;15.80;;;;;;;6.67;91.13;99343.38;103255;1326;38348;-73
2022/12/23 01:44:37;;;;;;;22.60;16.80;;;;;;;6.67;91.05;99342.14;103256;1327;36156;-73
2022/12/23 01:47:12;;;;;;;25.70;16.00;;;;;;;6.70;91.29;99336.52;103250;1324;38271;-74
2022/12/23 01:49:48;;;;;;;26.60;17.10;;;;;;;6.73;91.02;99335.00;103257;1327;37198;-74
2022/12/23 01:52:26;;;;;;;25.20;16.50;;;;;;;6.75;91.26;99342.20;103251;1328;37234;-75
2022/12/23 01:55:03;;;;;;;23.20;16.70;;;;;;;6.78;91.31;99345.91;103266;1327;36601;-74
2022/12/23 01:57:40;;;;;;;25.20;17.90;;;;;;;6.82;91.21;99341.06;102977;1326;449028;-75
2022/12/23 02:09:15;;;;;;;28.20;17.90;;;;;;;6.82;91.20;99348.00;103285;1312;37307;-75
2022/12/23 02:12:02;;;;;;;27.30;17.90;;;;;;;6.82;91.12;99355.31;103234;1324;37232;-74
2022/12/23 02:17:51;;;;;;;28.40;17.90;;;;;;;6.87;91.31;99359.63;103241;1326;36834;-75
2022/12/23 02:21:01;;;;;;;27.00;17.90;;;;;;;6.86;91.18;99361.19;103253;1326;37125;-72
2022/12/23 02:24:01;;;;;;;29.30;19.40;;;;;;;6.86;91.38;99359.09;103272;1327;37246;-75
2022/12/23 02:27:08;;;;;;;28.40;18.60;;;;;;;6.86;91.44;99358.27;103266;1325;37249;-76
2022/12/23 02:30:28;;;;;;;28.40;18.40;;;;;;;6.87;91.43;99358.05;103219;1325;37154;-76
2022/12/23 02:33:33;;;;;;;26.50;17.60;;;;;;;6.90;91.56;99366.27;103259;1327;37234;-77
2022/12/23 02:36:19;;;;;;;25.70;17.20;;;;;;;6.94;91.49;99370.41;103235;1324;37395;-76
2022/12/23 02:39:04;;;;;;;28.50;17.90;;;;;;;6.97;91.44;99372.91;103276;1329;37294;-75
2022/12/23 02:41:49;;;;;;;29.90;18.80;;;;;;;7.01;91.41;99376.58;103235;1328;36838;-76
2022/12/23 02:44:30;;;;;;;31.60;19.30;;;;;;;7.05;91.69;99378.14;103283;1327;37111;-74
2022/12/23 02:47:06;;;;;;;32.30;18.70;;;;;;;7.10;91.55;99375.52;103283;1324;37363;-74
2022/12/23 02:49:45;;;;;;;29.90;19.40;;;;;;;7.09;91.31;99373.10;103285;1326;37221;-74
2022/12/23 02:52:29;;;;;;;28.60;17.70;;;;;;;7.11;91.18;99377.74;103274;1326;37430;-76
2022/12/23 02:55:05;;;;;;;28.60;17.50;;;;;;;7.13;91.18;99382.85;103258;1326;37124;-76
2022/12/23 02:57:44;;;;;;;28.00;18.30;;;;;;;7.14;91.05;99389.58;103193;1327;172757;-75
2022/12/23 03:00:17;;;;;;;;;;;;;;;7.15;90.99;99389.02;103271;1326;37305;-72
2022/12/23 03:02:51;;;;;;;27.10;16.80;;;;;;;7.10;90.90;99392.52;103307;1326;37331;-75
2022/12/23 03:05:35;;;;;;;26.30;16.90;;;;;;;7.09;91.03;99392.01;103270;1326;38297;-74
2022/12/23 03:08:14;;;;;;;24.70;16.40;;;;;;;7.10;90.97;99393.73;103260;1323;38344;-77
2022/12/23 03:11:05;;;;;;;23.40;15.90;;;;;;;7.10;90.91;99395.81;103275;1324;37374;-77
2022/12/23 03:13:59;;;;;;;21.10;14.00;;;;;;;7.10;91.02;99389.38;103254;1326;37137;-75
2022/12/23 03:16:39;;;;;;;20.20;14.20;;;;;;;7.13;91.03;99391.68;103215;1327;37491;-75
2022/12/23 03:19:17;;;;;;;21.90;14.80;;;;;;;7.16;91.05;99393.13;103284;1324;36362;-75
2022/12/23 03:22:03;;;;;;;22.30;16.60;;;;;;;7.21;91.04;99391.35;103218;1329;37839;-74
2022/12/23 03:24:44;;;;;;;24.60;16.20;;;;;;;7.28;91.04;99384.17;103262;1327;37217;-76
2022/12/23 03:27:22;;;;;;;22.40;15.20;;;;;;;7.28;90.82;99389.55;103253;1325;37095;-75
2022/12/23 03:30:08;;;;;;;21.70;15.50;;;;;;;7.24;90.63;99386.22;103285;1325;37109;-76
2022/12/23 03:32:47;;;;;;;20.80;14.40;;;;;;;7.24;90.58;99390.04;103262;1326;37116;-76
2022/12/23 03:35:28;;;;;;;21.20;14.60;;;;;;;7.26;90.78;99386.35;103304;1324;37190;-76
2022/12/23 03:38:03;;;;;;;22.30;14.60;;;;;;;7.30;90.82;99390.69;102633;1323;908534;-76
2022/12/23 03:40:39;;;;;;;20.30;14.10;;;;;;;7.32;90.50;99392.85;103252;1326;38608;-76
2022/12/23 03:43:18;;;;;;;21.10;14.50;;;;;;;7.33;90.29;99400.97;103298;1327;36135;-76
2022/12/23 03:45:57;;;;;;;19.20;14.00;;;;;;;7.33;90.28;99403.74;103228;1327;37261;-74
2022/12/23 03:48:34;;;;;;;17.50;12.90;;;;;;;7.31;90.26;99397.39;103283;1326;36297;-75
2022/12/23 03:51:11;;;;;;;16.70;12.60;;;;;;;7.32;90.41;99400.14;103274;1324;37275;-74
2022/12/23 03:53:52;;;;;;;17.30;11.90;;;;;;;7.33;90.18;99403.04;103308;1326;37129;-77
2022/12/23 03:56:35;;;;;;;15.80;12.30;;;;;;;7.35;90.07;99403.33;103267;1326;38485;-77
2022/12/23 03:59:15;;;;;;;14.60;11.10;;;;;;;7.36;90.30;99405.88;103255;1327;37103;-76
2022/12/23 04:01:59;;;;;;;14.50;11.20;;;;;;;7.34;89.81;99400.56;103266;1327;38606;-76
2022/12/23 04:04:37;;;;;;;14.50;10.90;;;;;;;7.30;89.57;99399.85;103246;1327;36689;-76
2022/12/23 04:07:19;;;;;;;15.70;11.80;;;;;;;7.25;89.42;99399.88;103321;1326;37120;-76
2022/12/23 04:09:53;;;;;;;14.10;10.70;;;;;;;7.20;89.17;99401.64;103240;1326;37446;-76
2022/12/23 04:12:29;;;;;;;12.70;10.60;;;;;;;7.13;89.01;99397.39;103303;1329;36582;-76
2022/12/23 04:15:06;;;;;;;14.40;10.90;;;;;;;7.09;88.90;99399.81;103261;1327;37774;-74
2022/12/23 04:17:44;;;;;;;12.80;10.80;;;;;;;7.05;88.92;99399.30;103286;1318;36219;-76
2022/12/23 04:20:19;;;;;;;13.50;11.00;;;;;;;6.99;88.82;99403.34;103254;1327;37375;-76
2022/12/23 04:22:55;;;;;;;12.40;9.70;;;;;;;6.93;88.63;99405.84;103270;1324;36496;-75
2022/12/23 04:25:32;;;;;;;12.90;10.20;;;;;;;6.86;88.54;99406.30;103246;1327;37727;-74
2022/12/23 04:28:06;;;;;;;11.80;9.20;;;;;;;6.79;88.55;99405.35;103290;1327;37216;-75
2022/12/23 04:30:44;;;;;;;11.70;10.10;;;;;;;6.74;88.49;99411.39;103277;1326;37225;-74
2022/12/23 04:33:25;;;;;;;13.30;10.50;;;;;;;6.68;88.43;99411.78;103257;1326;37380;-75
2022/12/23 04:36:02;;;;;;;12.60;10.00;;;;;;;6.60;88.37;99416.44;103240;1323;37153;-75
2022/12/23 04:38:40;;;;;;;12.60;9.40;;;;;;;6.54;88.56;99417.70;103293;1326;38627;-74
2022/12/23 04:41:14;;;;;;;12.70;9.80;;;;;;;6.46;88.36;99422.66;103240;1327;37139;-75
2022/12/23 04:43:51;;;;;;;13.20;10.40;;;;;;;6.42;88.54;99424.70;103241;1326;37378;-74
2022/12/23 04:46:26;;;;;;;11.00;9.20;;;;;;;6.41;88.73;99427.86;103275;1318;37222;-74
2022/12/23 04:49:03;;;;;;;14.50;11.10;;;;;;;6.41;88.79;99420.43;103258;1326;37099;-75
2022/12/23 04:51:37;;;;;;;13.90;11.30;;;;;;;6.40;88.84;99418.20;103117;1330;38895;-76
2022/12/23 04:54:14;;;;;;;16.30;11.60;;;;;;;6.34;88.62;99416.17;103220;1328;37260;-75
2022/12/23 04:56:50;;;;;;;14.70;12.30;;;;;;;6.28;88.80;99419.34;103263;1326;37301;-75
2022/12/23 04:59:31;;;;;;;14.40;11.30;;;;;;;6.25;88.75;99419.63;103309;1326;37385;-75
2022/12/23 05:02:07;;;;;;;12.20;10.70;;;;;;;6.20;88.49;99425.31;103323;1324;37320;-75
2022/12/23 05:04:43;;;;;;;13.60;11.00;;;;;;;6.18;88.67;99426.95;103250;1324;37110;-75
2022/12/23 05:07:18;;;;;;;14.90;11.90;;;;;;;6.19;88.73;99429.34;103333;1327;37473;-75
2022/12/23 05:09:52;;;;;;;17.30;12.80;;;;;;;6.18;88.73;99433.02;103237;1326;37272;-76
2022/12/23 05:12:27;;;;;;;17.20;12.90;;;;;;;6.16;89.06;99439.50;103304;1326;36297;-75
2022/12/23 05:15:02;;;;;;;16.60;12.20;;;;;;;6.15;89.09;99442.11;103284;1327;37229;-75
2022/12/23 05:17:42;;;;;;;15.70;12.30;;;;;;;6.13;88.72;99445.33;103300;1326;37179;-76
2022/12/23 05:20:23;;;;;;;15.70;12.40;;;;;;;6.10;88.92;99445.07;103274;1327;37494;-77
2022/12/23 05:23:01;;;;;;;16.50;12.70;;;;;;;6.14;89.27;99441.79;103224;1326;37361;-76
2022/12/23 05:25:41;;;;;;;18.70;14.30;;;;;;;6.17;88.77;99440.16;102628;1327;909285;-77
2022/12/23 05:28:17;;;;;;;18.90;13.20;;;;;;;6.15;88.95;99437.09;103256;1312;37490;-75
2022/12/23 05:31:03;;;;;;;16.40;13.00;;;;;;;6.16;89.16;99438.44;103274;1315;37282;-75
2022/12/23 05:33:38;;;;;;;16.90;13.40;;;;;;;6.16;89.20;99440.02;103199;1325;174922;-73
2022/12/23 05:36:13;;;;;;;15.60;12.40;;;;;;;6.16;89.16;99445.38;103235;1329;37481;-74
2022/12/23 05:38:47;;;;;;;15.80;12.70;;;;;;;6.18;89.32;99444.08;103267;1326;37247;-74
2022/12/23 05:41:23;;;;;;;15.00;12.40;;;;;;;6.20;89.17;99443.85;103236;1328;36290;-74
2022/12/23 05:43:58;;;;;;;15.90;12.30;;;;;;;6.20;89.04;99444.04;103256;1325;36210;-76
2022/12/23 05:46:32;;;;;;;16.00;12.20;;;;;;;6.18;88.87;99446.02;103241;1327;37124;-77
2022/12/23 05:49:07;;;;;;;16.80;12.60;;;;;;;6.13;88.44;99451.17;103213;1326;37372;-73
2022/12/23 05:51:41;;;;;;;16.10;12.80;;;;;;;6.07;88.46;99457.14;103198;1329;37004;-73
2022/12/23 05:54:16;;;;;;;16.80;13.10;;;;;;;6.01;88.52;99459.23;103271;1325;37235;-75
2022/12/23 05:56:51;;;;;;;14.70;12.30;;;;;;;5.98;88.81;99458.80;103275;1327;36345;-76
2022/12/23 05:59:30;;;;;;;16.90;13.60;;;;;;;5.96;88.97;99455.94;103255;1327;37161;-75
2022/12/23 06:02:07;;;;;;;14.40;12.20;;;;;;;5.98;89.23;99459.70;103234;1327;37135;-75
2022/12/23 06:04:48;;;;;;;17.80;13.30;;;;;;;6.00;89.18;99461.17;103288;1326;37228;-75
2022/12/23 06:07:25;;;;;;;16.50;13.10;;;;;;;6.00;89.20;99461.35;103288;1326;36280;-74
2022/12/23 06:09:59;;;;;;;14.60;12.70;;;;;;;6.00;89.35;99464.81;103268;1327;38598;-75
2022/12/23 06:12:36;;;;;;;17.10;13.00;;;;;;;5.97;89.06;99458.34;103270;1328;38207;-75
2022/12/23 06:15:16;;;;;;;16.70;14.00;;;;;;;5.91;89.12;99462.99;103223;1326;37411;-75
2022/12/23 06:17:51;;;;;;;18.20;14.50;;;;;;;5.85;88.99;99468.55;102614;1324;908997;-75
2022/12/23 06:20:27;;;;;;;21.40;14.80;;;;;;;5.79;88.87;99475.34;103260;1327;37107;-76
2022/12/23 06:23:03;;;;;;;18.00;14.60;;;;;;;5.70;88.66;99486.02;103171;1326;172866;-75
2022/12/23 06:25:40;;;;;;;17.60;13.90;;;;;;;5.63;88.69;99485.70;103286;1324;37150;-75
2022/12/23 06:28:17;;;;;;;18.80;13.90;;;;;;;5.60;88.79;99486.52;103293;1327;37249;-75
2022/12/23 06:30:55;;;;;;;18.10;14.20;;;;;;;5.58;89.23;99488.81;103245;1327;37490;-75
2022/12/23 06:33:30;;;;;;;17.00;14.00;;;;;;;5.58;89.26;99492.10;103310;1326;37225;-76
2022/12/23 06:36:06;;;;;;;17.60;14.00;;;;;;;5.60;89.28;99490.33;103254;1327;37241;-75
2022/12/23 06:38:42;;;;;;;18.20;14.40;;;;;;;5.61;89.76;99495.28;103298;1324;37239;-75
2022/12/23 06:41:21;;;;;;;18.00;13.90;;;;;;;5.66;89.74;99496.00;103266;1318;37268;-75
2022/12/23 06:43:55;;;;;;;18.00;14.60;;;;;;;5.70;89.86;99498.98;103276;1328;37602;-75
2022/12/23 06:46:31;;;;;;;18.70;14.10;;;;;;;5.73;89.57;99502.02;103257;1327;37103;-76
2022/12/23 06:49:06;;;;;;;19.60;15.10;;;;;;;5.71;89.43;99502.26;103277;1326;37813;-75
2022/12/23 06:51:40;;;;;;;18.20;14.60;;;;;;;5.68;89.64;99495.42;103285;1324;37942;-76
2022/12/23 06:54:18;;;;;;;19.40;14.90;;;;;;;5.67;89.34;99499.95;103275;1326;37091;-71
2022/12/23 06:56:57;;;;;;;19.30;14.50;;;;;;;5.65;89.56;99504.51;103227;1326;37231;-71
2022/12/23 06:59:31;;;;;;;15.80;13.60;;;;;;;5.66;89.50;99501.88;103232;1328;37095;-74
2022/12/23 07:02:07;;;;;;;17.60;14.00;;;;;;;5.69;89.85;99502.64;103291;1323;37157;-74
2022/12/23 07:04:46;;;;;;;18.00;14.10;;;;;;;5.74;89.81;99509.96;103271;1326;37452;-74
2022/12/23 07:07:22;;;;;;;19.60;14.30;;;;;;;5.77;90.01;99511.08;103275;1323;36751;-74
2022/12/23 07:09:58;;;;;;;18.70;15.00;;;;;;;5.81;89.89;99514.05;103297;1327;37261;-75
2022/12/23 07:12:36;;;;;;;17.70;15.10;;;;;;;5.83;89.91;99514.34;103293;1326;37328;-75
2022/12/23 07:15:14;;;;;;;17.00;13.90;;;;;;;5.86;89.93;99518.20;103245;1326;37098;-76
2022/12/23 07:17:52;;;;;;;19.00;14.40;;;;;;;5.87;89.72;99520.77;103287;1326;36281;-74
2022/12/23 07:20:29;;;;;;;21.20;16.30;;;;;;;5.87;89.64;99517.13;103214;1325;37569;-74
2022/12/23 07:23:03;;;;;;;19.70;14.60;;;;;;;5.89;89.59;99520.35;103293;1325;37381;-75
2022/12/23 07:25:39;;;;;;;16.10;13.40;;;;;;;5.92;89.79;99521.50;103273;1324;36960;-76
2022/12/23 07:28:16;;;;;;;17.00;13.40;;;;;;;5.96;89.79;99517.40;103291;1324;37413;-74
2022/12/23 07:30:53;;;;;;;17.00;14.20;;;;;;;6.00;89.80;99520.73;103157;1327;174702;-75
2022/12/23 07:33:29;;;;;;;17.20;14.80;;;;;;;6.01;89.73;99521.56;103257;1327;37409;-74
2022/12/23 07:36:09;;;;;;;19.00;14.70;;;;;;;6.05;89.89;99516.91;103298;1313;37473;-76
2022/12/23 07:38:45;;;;;;;19.10;13.80;;;;;;;6.07;89.72;99517.21;103268;1327;36871;-75
2022/12/23 07:41:22;;;;;;;15.80;13.60;;;;;;;6.08;89.69;99515.27;103284;1326;37198;-72
2022/12/23 07:43:56;;;;;;;15.90;13.50;;;;;;;6.12;89.71;99504.92;103252;1327;37228;-73
2022/12/23 07:46:30;;;;;;;15.50;12.60;;;;;;;6.15;89.67;99497.71;103267;1325;37202;-73
2022/12/23 07:49:04;;;;;;;17.10;13.70;;;;;;;6.16;89.71;99494.04;103289;1326;37299;-73
2022/12/23 07:51:42;;;;;;;17.20;14.00;;;;;;;6.19;89.60;99497.90;103235;1324;37227;-72
2022/12/23 07:54:17;;;;;;;16.40;13.50;;;;;;;6.15;89.27;99504.80;103246;1326;37455;-73
2022/12/23 07:56:57;;;;;;;17.10;13.40;;;;;;;6.13;89.35;99510.77;103277;1327;36519;-73
2022/12/23 07:59:33;;;;;;;16.20;13.50;;;;;;;6.14;89.28;99521.83;103273;1313;36336;-75
2022/12/23 08:02:09;;;;;;;15.30;12.90;;;;;;;6.13;89.44;99526.02;103271;1329;37394;-71
2022/12/23 08:04:43;;;;;;;15.40;12.90;;;;;;;6.14;89.51;99534.45;102677;1324;910577;-72
2022/12/23 08:07:18;;;;;;;14.00;11.80;;;;;;;6.16;89.36;99534.57;103267;1326;37317;-74
2022/12/23 08:09:54;;;;;;;16.00;12.90;;;;;;;6.20;89.30;99524.05;103258;1328;37119;-74
2022/12/23 08:12:31;;;;;;;17.50;14.00;;;;;;;6.24;89.52;99525.13;103256;1327;37673;-74
2022/12/23 08:15:09;;;;;;;18.50;15.00;;;;;;;6.28;89.48;99524.30;103285;1326;37131;-73
2022/12/23 08:17:45;;;;;;;16.50;13.70;;;;;;;6.26;89.29;99523.67;103315;1326;37179;-74
2022/12/23 08:20:19;;;;;;;16.10;13.80;;;;;;;6.21;89.12;99526.77;103299;1326;36738;-73
2022/12/23 08:22:56;;;;;;;16.70;13.70;;;;;;;6.24;89.64;99522.52;103159;1326;174937;-72
2022/12/23 08:25:35;;;;;;;17.40;14.00;;;;;;;6.30;89.67;99516.94;103308;1326;37171;-71
2022/12/23 08:28:10;;;;;;;17.90;13.90;;;;;;;6.38;89.83;99517.52;103293;1326;37100;-74
2022/12/23 08:30:48;;;;;;;15.70;13.80;;;;;;;6.45;89.86;99512.43;103237;1326;37215;-74
2022/12/23 08:33:30;;;;;;;16.00;12.90;;;;;;;6.52;89.72;99511.50;103281;1325;36915;-72
2022/12/23 08:36:12;;;;;;;16.30;13.30;;;;;;;6.58;89.81;99510.61;103247;1328;36272;-72
2022/12/23 08:38:49;;;;;;;17.30;14.00;;;;;;;6.64;89.60;99509.87;103262;1324;37226;-74
2022/12/23 08:41:30;;;;;;;17.10;14.40;;;;;;;6.67;89.38;99501.77;103248;1327;37503;-75
2022/12/23 08:44:04;;;;;;;18.40;14.70;;;;;;;6.73;89.48;99501.56;103285;1326;37202;-74
2022/12/23 08:46:39;;;;;;;17.10;14.30;;;;;;;6.72;88.87;99499.69;103264;1327;37308;-74
2022/12/23 08:49:16;;;;;;;19.20;14.60;;;;;;;6.65;88.43;99497.19;103274;1324;37132;-73
2022/12/23 08:51:55;;;;;;;17.20;14.00;;;;;;;6.63;88.88;99500.01;103267;1328;37653;-73
2022/12/23 08:54:29;;;;;;;16.30;13.50;;;;;;;6.65;88.96;99499.76;103232;1329;37237;-73
2022/12/23 08:57:06;;;;;;;17.00;14.00;;;;;;;6.69;89.01;99498.92;103290;1328;37189;-71
2022/12/23 08:59:40;;;;;;;15.80;13.70;;;;;;;6.75;88.99;99494.58;103215;1328;39256;-72
2022/12/23 09:02:17;;;;;;;17.20;13.60;;;;;;;6.79;88.95;99485.77;103305;1326;36220;-73
2022/12/23 09:04:51;;;;;;;17.60;14.40;;;;;;;6.86;89.18;99481.49;103275;1327;38566;-72
2022/12/23 09:07:28;;;;;;;20.40;15.30;;;;;;;6.87;89.00;99475.58;103282;1325;36865;-72
2022/12/23 09:10:03;;;;;;;19.60;15.10;;;;;;;6.95;89.21;99473.02;103209;1325;37223;-74
2022/12/23 09:12:41;;;;;;;18.60;14.90;;;;;;;7.00;88.93;99471.98;103263;1324;37233;-72
2022/12/23 09:15:18;;;;;;;18.60;14.30;;;;;;;7.03;89.02;99471.17;103130;1321;38050;-72
2022/12/23 09:17:54;;;;;;;20.90;15.40;;;;;;;7.10;89.08;99475.76;103243;1328;37207;-74
2022/12/23 09:20:29;;;;;;;18.00;14.50;;;;;;;7.14;88.84;99469.17;103282;1328;38286;-72
2022/12/23 09:23:05;;;;;;;17.70;14.50;;;;;;;7.19;88.74;99465.86;103292;1326;37165;-73
2022/12/23 09:25:40;;;;;;;18.60;14.60;;;;;;;7.24;88.71;99463.59;103263;1328;37372;-72
2022/12/23 09:28:17;;;;;;;19.70;15.60;;;;;;;7.28;88.60;99460.48;103238;1328;37245;-73
2022/12/23 09:30:51;;;;;;;19.40;14.70;;;;;;;7.29;88.50;99457.00;103280;1324;37477;-72
2022/12/23 09:33:25;;;;;;;20.70;15.40;;;;;;;7.28;88.10;99456.69;103247;1324;36270;-73
2022/12/23 09:36:07;;;;;;;18.10;15.30;;;;;;;7.24;87.96;99450.39;103213;1328;37133;-73
2022/12/23 09:38:43;;;;;;;20.40;15.90;;;;;;;7.20;87.86;99446.58;103261;1328;37480;-72
2022/12/23 09:41:34;;;;;;;19.80;14.90;;;;;;;7.24;88.25;99441.57;103215;1328;36212;-72
2022/12/23 09:44:35;;;;;;;21.20;15.50;;;;;;;7.27;88.02;99442.64;103230;1326;37331;-72
2022/12/23 09:47:14;;;;;;;22.00;16.60;;;;;;;7.26;87.89;99436.66;103197;1329;37455;-75
2022/12/23 09:49:51;;;;;;;23.50;17.60;;;;;;;7.29;88.05;99437.20;103243;1325;37025;-74
2022/12/23 09:52:38;;;;;;;21.90;16.70;;;;;;;7.28;87.84;99435.86;103197;1326;37092;-74
2022/12/23 09:55:13;;;;;;;21.20;15.90;;;;;;;7.29;87.85;99434.97;103255;1327;37388;-71
2022/12/23 09:57:57;;;;;;;23.60;17.10;;;;;;;7.26;87.54;99430.89;101613;1328;1463935;-73
2022/12/23 10:00:37;;;;;;;21.10;16.20;;;;;;;7.24;87.67;99426.13;103268;1326;37127;-73
2022/12/23 10:03:22;;;;;;;20.80;16.20;;;;;;;7.29;88.02;99426.97;103227;1326;37272;-72
2022/12/23 10:06:06;;;;;;;25.30;17.60;;;;;;;7.33;87.68;99421.08;103243;1326;37697;-73
2022/12/23 10:08:43;;;;;;;23.50;17.30;;;;;;;7.28;87.51;99418.67;103202;1328;38576;-72
2022/12/23 10:11:22;;;;;;;22.80;17.30;;;;;;;7.27;87.58;99421.67;103283;1326;38145;-71
2022/12/23 10:14:00;;;;;;;22.70;16.40;;;;;;;7.19;87.32;99412.27;103233;1328;37214;-75
2022/12/23 10:16:41;;;;;;;19.30;15.40;;;;;;;7.15;87.50;99413.81;103243;1326;37425;-75
2022/12/23 10:19:27;;;;;;;21.30;16.10;;;;;;;7.16;87.60;99413.59;103254;1328;37144;-77
2022/12/23 10:22:08;;;;;;;20.40;15.80;;;;;;;7.22;88.02;99407.97;103141;1324;172723;-76
2022/12/23 10:24:47;;;;;;;21.90;16.50;;;;;;;7.23;87.78;99408.98;103290;1328;37118;-75
2022/12/23 10:27:29;;;;;;;49.10;31.30;;;;;;;7.23;87.59;99405.51;103252;1328;37133;-75
2022/12/23 10:30:05;;;;;;;27.30;19.50;;;;;;;7.24;87.87;99401.48;103235;1328;37256;-73
2022/12/23 10:32:54;;;;;;;28.40;18.40;;;;;;;7.26;88.04;99397.11;103173;1326;39208;-74
2022/12/23 10:35:51;;;;;;;24.00;17.10;;;;;;;7.27;87.86;99401.36;103212;1325;37122;-75
2022/12/23 10:38:36;;;;;;;22.50;17.00;;;;;;;7.23;87.60;99396.34;103255;1324;37242;-73
2022/12/23 10:41:20;;;;;;;22.40;16.20;;;;;;;7.26;88.00;99392.41;103260;1328;37285;-74
2022/12/23 10:44:06;;;;;;;23.70;16.00;;;;;;;7.28;87.88;99386.75;103268;1327;37206;-75
2022/12/23 10:46:54;;;;;;;19.80;15.20;;;;;;;7.28;87.88;99385.73;103266;1328;38751;-75
2022/12/23 10:49:40;;;;;;;23.00;16.80;;;;;;;7.29;87.78;99388.81;103264;1328;37115;-74
2022/12/23 10:52:22;;;;;;;27.80;17.30;;;;;;;7.30;87.70;99388.26;103282;1328;36535;-74
2022/12/23 10:54:56;;;;;;;20.80;15.90;;;;;;;7.30;87.72;99387.92;103271;1324;37031;-74
2022/12/23 10:57:33;;;;;;;24.10;16.30;;;;;;;7.31;87.75;99386.82;103280;1326;37130;-73
2022/12/23 11:00:23;;;;;;;21.20;16.50;;;;;;;7.33;87.64;99382.20;103288;1326;36265;-74
2022/12/23 11:03:07;;;;;;;23.40;16.40;;;;;;;7.34;87.77;99377.84;103289;1329;37157;-74
2022/12/23 11:05:44;;;;;;;22.10;16.80;;;;;;;7.39;87.92;99375.39;103192;1325;37291;-73
2022/12/23 11:08:22;;;;;;;20.50;15.90;;;;;;;7.37;87.38;99365.56;103262;1326;37625;-73
2022/12/23 11:10:57;;;;;;;21.60;16.50;;;;;;;7.35;87.48;99361.68;103265;1326;36835;-73
2022/12/23 11:13:44;;;;;;;22.70;16.90;;;;;;;7.36;87.61;99355.58;103269;1325;37829;-77
2022/12/23 11:16:25;;;;;;;22.20;16.20;;;;;;;7.39;87.51;99352.13;103227;1326;37383;-73
2022/12/23 11:19:04;;;;;;;24.00;16.60;;;;;;;7.39;87.37;99345.69;103334;1328;36275;-78
2022/12/23 11:21:53;;;;;;;24.00;16.40;;;;;;;7.38;87.33;99342.13;103278;1326;37846;-77
2022/12/23 11:24:33;;;;;;;20.70;15.50;;;;;;;7.35;87.16;99340.66;103279;1326;37285;-73
2022/12/23 11:27:12;;;;;;;21.80;16.10;;;;;;;7.32;87.05;99335.62;103232;1325;37102;-71
2022/12/23 11:29:50;;;;;;;22.00;17.20;;;;;;;7.31;87.17;99332.54;103239;1325;36247;-76
2022/12/23 11:32:32;;;;;;;23.00;16.60;;;;;;;7.30;87.39;99332.22;103221;1326;36171;-74
2022/12/23 11:35:23;;;;;;;23.90;16.80;;;;;;;7.32;87.27;99325.02;103233;1326;37181;-75
2022/12/23 11:38:02;;;;;;;22.40;16.20;;;;;;;7.30;87.10;99317.48;103273;1326;37287;-74
2022/12/23 11:40:40;;;;;;;24.00;16.40;;;;;;;7.29;87.18;99320.46;103242;1326;37795;-75
2022/12/23 11:43:21;;;;;;;21.40;16.10;;;;;;;7.24;87.00;99321.86;103136;1326;37181;-75
2022/12/23 11:46:28;;;;;;;23.00;16.30;;;;;;;7.24;87.13;99320.83;103113;1329;37129;-74
2022/12/23 11:49:18;;;;;;;24.00;16.30;;;;;;;7.23;87.34;99319.81;103101;1329;37246;-73
2022/12/23 11:52:09;;;;;;;;;;;;;;;7.26;87.51;99317.30;103130;1326;37270;-75
2022/12/23 11:54:45;;;;;;;22.10;16.40;;;;;;;7.21;87.22;99314.69;103127;1327;37539;-74
2022/12/23 11:57:32;;;;;;;23.30;17.00;;;;;;;7.19;87.44;99309.92;103168;1329;36521;-74
2022/12/23 12:00:22;;;;;;;21.80;16.30;;;;;;;7.21;87.58;99308.80;103114;1326;37249;-74
2022/12/23 12:02:58;;;;;;;23.10;16.90;;;;;;;7.23;87.59;99305.75;103134;1326;37492;-74
2022/12/23 12:05:39;;;;;;;24.60;17.70;;;;;;;7.23;87.49;99304.37;103074;1330;37503;-74
2022/12/23 12:08:16;;;;;;;24.40;17.70;;;;;;;7.20;87.40;99304.50;103184;1329;37189;-73
2022/12/23 12:10:54;;;;;;;25.30;18.60;;;;;;;7.18;87.42;99299.02;103228;1326;37469;-75
2022/12/23 12:13:32;;;;;;;25.80;18.10;;;;;;;7.16;87.32;99302.25;103202;1326;37384;-73
2022/12/23 12:16:29;;;;;;;26.50;18.20;;;;;;;7.14;87.27;99297.13;103084;1330;37394;-74
2022/12/23 12:19:17;;;;;;;25.30;17.70;;;;;;;7.12;87.32;99291.14;103158;1329;37091;-74
2022/12/23 12:22:00;;;;;;;24.40;17.20;;;;;;;7.06;87.18;99286.18;103127;1329;37526;-73
2022/12/23 12:24:41;;;;;;;24.90;17.30;;;;;;;7.07;87.46;99287.90;103112;1326;37181;-74
2022/12/23 12:27:22;;;;;;;21.90;17.50;;;;;;;7.07;87.51;99291.70;103123;1331;37178;-72
2022/12/23 12:30:17;;;;;;;26.40;18.40;;;;;;;7.05;87.42;99289.36;103123;1329;38463;-75
2022/12/23 12:32:57;;;;;;;26.80;18.30;;;;;;;7.04;87.48;99284.89;103154;1327;36613;-74
2022/12/23 12:35:46;;;;;;;24.50;18.70;;;;;;;7.04;87.68;99283.48;102474;1330;911140;-74
2022/12/23 12:38:23;;;;;;;26.10;17.50;;;;;;;7.05;87.66;99285.36;103148;1326;37527;-75
2022/12/23 12:41:03;;;;;;;24.00;17.90;;;;;;;7.05;87.81;99281.89;103112;1329;37239;-74
2022/12/23 12:43:53;;;;;;;26.30;18.10;;;;;;;7.05;87.70;99285.38;103266;1328;37157;-73